Time;durP1;ratioP1;P1;durP2;ratioP2;P2;SDS_P1;SDS_P2;PMS_P1;PMS_P2;Temp;Humidity;BMP_temperature;BMP_pressure;BME280_temperature;BME280_humidity;BME280_pressure;Samples;Min_cycle;Max_cycle;Signal;HPM_P1;HPM_P2
2024/04/11 00:01:47;;;;;;;9.15;1.90;;;;;;;;;;5382707;26;25048;-60
2024/04/11 00:04:13;;;;;;;7.28;1.58;;;;;;;;;;5400935;26;25066;-64
2024/04/11 00:06:39;;;;;;;8.18;1.70;;;;;;;;;;5407364;26;25039;-62
2024/04/11 00:09:05;;;;;;;6.95;2.08;;;;;;;;;;5370080;26;25116;-61
2024/04/11 00:11:31;;;;;;;10.60;2.20;;;;;;;;;;5359277;26;25047;-61
2024/04/11 00:13:57;;;;;;;13.10;3.22;;;;;;;;;;5374846;26;25069;-61
2024/04/11 00:16:23;;;;;;;11.52;2.13;;;;;;;;;;5388585;26;25069;-62
2024/04/11 00:18:49;;;;;;;8.98;2.40;;;;;;;;;;5405505;26;25070;-60
2024/04/11 00:21:18;;;;;;;6.57;1.75;;;;;;;;;;5399899;26;25052;-62
2024/04/11 00:23:46;;;;;;;8.45;1.80;;;;;;;;;;5378514;26;25042;-61
2024/04/11 00:26:13;;;;;;;7.28;2.00;;;;;;;;;;5379299;26;25096;-60
2024/04/11 00:28:39;;;;;;;8.35;2.08;;;;;;;;;;5370891;26;25118;-61
2024/04/11 00:31:05;;;;;;;9.40;2.30;;;;;;;;;;5367035;26;25102;-62
2024/04/11 00:33:31;;;;;;;8.40;2.00;;;;;;;;;;5394173;26;25041;-61
2024/04/11 00:35:59;;;;;;;7.38;2.03;;;;;;;;;;5390079;26;25035;-62
2024/04/11 00:38:26;;;;;;;11.52;1.88;;;;;;;;;;5404943;26;25074;-63
2024/04/11 00:40:59;;;;;;;12.70;2.00;;;;;;;;;;5407119;26;25037;-64
2024/04/11 00:43:26;;;;;;;9.13;2.35;;;;;;;;;;5398555;26;25081;-60
2024/04/11 00:45:53;;;;;;;9.30;2.28;;;;;;;;;;5404886;26;25139;-62
2024/04/11 00:48:21;;;;;;;11.80;2.15;;;;;;;;;;5368223;26;25070;-63
2024/04/11 00:50:48;;;;;;;8.90;2.25;;;;;;;;;;5389138;26;25088;-63
2024/04/11 00:53:15;;;;;;;9.43;2.33;;;;;;;;;;5394866;26;25067;-62
2024/04/11 00:55:41;;;;;;;7.47;2.38;;;;;;;;;;5381737;26;25031;-65
2024/04/11 00:58:08;;;;;;;14.20;2.92;;;;;;;;;;5367772;26;25058;-62
2024/04/11 01:00:34;;;;;;;11.30;2.83;;;;;;;;;;5400793;26;25120;-63
2024/04/11 01:03:02;;;;;;;9.73;2.33;;;;;;;;;;5360815;26;25056;-61
2024/04/11 01:05:28;;;;;;;13.23;2.13;;;;;;;;;;5389716;26;25047;-62
2024/04/11 01:07:54;;;;;;;8.07;1.92;;;;;;;;;;5400125;26;25106;-61
2024/04/11 01:10:22;;;;;;;14.60;2.38;;;;;;;;;;5403900;26;25103;-62
2024/04/11 01:12:51;;;;;;;7.00;2.10;;;;;;;;;;5399894;26;25058;-64
2024/04/11 01:15:17;;;;;;;10.63;2.42;;;;;;;;;;5405638;26;25045;-62
2024/04/11 01:17:47;;;;;;;14.30;2.67;;;;;;;;;;5380390;26;25112;-61
2024/04/11 01:20:13;;;;;;;9.77;2.05;;;;;;;;;;5390213;26;25035;-61
2024/04/11 01:22:42;;;;;;;11.32;2.72;;;;;;;;;;5400642;26;25112;-62
2024/04/11 01:25:08;;;;;;;9.05;2.58;;;;;;;;;;5405198;26;25035;-62
2024/04/11 01:27:35;;;;;;;10.23;2.92;;;;;;;;;;5404143;26;25061;-61
2024/04/11 01:30:04;;;;;;;6.40;1.80;;;;;;;;;;5370125;26;25062;-61
2024/04/11 01:32:30;;;;;;;13.10;3.92;;;;;;;;;;5394765;26;25035;-62
2024/04/11 01:34:56;;;;;;;9.20;2.00;;;;;;;;;;5396613;26;25042;-64
2024/04/11 01:37:28;;;;;;;6.15;1.85;;;;;;;;;;5402321;26;25101;-61
2024/04/11 01:39:55;;;;;;;6.70;2.05;;;;;;;;;;5394897;26;25056;-64
2024/04/11 01:42:21;;;;;;;9.50;2.30;;;;;;;;;;5394660;26;25042;-62
2024/04/11 01:44:47;;;;;;;14.02;2.92;;;;;;;;;;5396055;26;25034;-63
2024/04/11 01:47:14;;;;;;;10.18;2.30;;;;;;;;;;5401701;26;25037;-62
2024/04/11 01:49:41;;;;;;;12.80;3.03;;;;;;;;;;5396106;26;25051;-61
2024/04/11 01:52:09;;;;;;;7.80;2.03;;;;;;;;;;5398585;26;25042;-62
2024/04/11 01:54:36;;;;;;;6.32;2.00;;;;;;;;;;5404364;26;25070;-61
2024/04/11 01:57:02;;;;;;;11.18;2.03;;;;;;;;;;5400641;26;25031;-62
2024/04/11 01:59:28;;;;;;;11.65;2.13;;;;;;;;;;5395918;26;25041;-62
2024/04/11 02:01:54;;;;;;;12.43;2.30;;;;;;;;;;5398857;26;25038;-61
2024/04/11 02:04:20;;;;;;;9.20;2.40;;;;;;;;;;5389117;26;25104;-64
2024/04/11 02:06:46;;;;;;;10.07;2.38;;;;;;;;;;5372029;26;25060;-62
2024/04/11 02:09:15;;;;;;;6.10;2.20;;;;;;;;;;5396528;26;25065;-61
2024/04/11 02:11:46;;;;;;;15.85;2.53;;;;;;;;;;5395670;26;25064;-61
2024/04/11 02:14:12;;;;;;;10.02;2.30;;;;;;;;;;5397410;26;25074;-61
2024/04/11 02:16:38;;;;;;;10.45;2.75;;;;;;;;;;5394895;26;25063;-62
2024/04/11 02:19:08;;;;;;;9.80;2.78;;;;;;;;;;5405307;26;25116;-62
2024/04/11 02:21:35;;;;;;;12.73;2.92;;;;;;;;;;5404305;26;25039;-62
2024/04/11 02:24:01;;;;;;;7.82;2.22;;;;;;;;;;5369057;26;25051;-62
2024/04/11 02:26:28;;;;;;;8.98;2.53;;;;;;;;;;5389933;26;25053;-60
2024/04/11 02:28:54;;;;;;;7.93;1.98;;;;;;;;;;5393282;26;25026;-60
2024/04/11 02:31:21;;;;;;;12.35;2.75;;;;;;;;;;5382617;26;25060;-61
2024/04/11 02:33:47;;;;;;;10.80;1.98;;;;;;;;;;5407216;26;25145;-62
2024/04/11 02:36:13;;;;;;;6.00;1.85;;;;;;;;;;5395572;26;25079;-62
2024/04/11 02:38:39;;;;;;;12.25;2.67;;;;;;;;;;5404269;26;25063;-61
2024/04/11 02:41:06;;;;;;;8.48;1.83;;;;;;;;;;5398852;26;25060;-63
2024/04/11 02:43:34;;;;;;;11.45;1.95;;;;;;;;;;5389749;26;25060;-63
2024/04/11 02:46:00;;;;;;;9.73;2.10;;;;;;;;;;5368403;26;25047;-62
2024/04/11 02:48:26;;;;;;;10.70;2.88;;;;;;;;;;5404984;26;25113;-60
2024/04/11 02:50:54;;;;;;;7.45;2.17;;;;;;;;;;5400160;26;25040;-63
2024/04/11 02:53:21;;;;;;;13.45;2.08;;;;;;;;;;5376411;26;25062;-61
2024/04/11 02:55:47;;;;;;;13.43;2.47;;;;;;;;;;5384823;26;25037;-62
2024/04/11 02:58:13;;;;;;;12.57;2.55;;;;;;;;;;5395801;26;25040;-62
2024/04/11 03:00:40;;;;;;;13.82;3.05;;;;;;;;;;5359961;26;25094;-61
2024/04/11 03:03:07;;;;;;;13.63;2.90;;;;;;;;;;5393180;26;25058;-63
2024/04/11 03:05:36;;;;;;;8.65;2.63;;;;;;;;;;5365504;26;25087;-63
2024/04/11 03:08:04;;;;;;;10.10;2.63;;;;;;;;;;5385120;26;25040;-59
2024/04/11 03:10:30;;;;;;;5.47;2.30;;;;;;;;;;5395013;26;25034;-62
2024/04/11 03:12:56;;;;;;;15.80;2.72;;;;;;;;;;5396810;26;25067;-61
2024/04/11 03:15:22;;;;;;;8.95;2.00;;;;;;;;;;5402587;26;25036;-61
2024/04/11 03:17:48;;;;;;;13.27;2.30;;;;;;;;;;5392897;26;25085;-61
2024/04/11 03:20:17;;;;;;;4.47;1.90;;;;;;;;;;5398929;26;25049;-62
2024/04/11 03:22:43;;;;;;;7.00;1.80;;;;;;;;;;5398246;26;25039;-61
2024/04/11 03:25:09;;;;;;;7.38;2.10;;;;;;;;;;5400961;26;25055;-60
2024/04/11 03:27:35;;;;;;;12.30;2.45;;;;;;;;;;5397628;26;25058;-61
2024/04/11 03:30:01;;;;;;;8.80;2.13;;;;;;;;;;5398989;26;25114;-61
2024/04/11 03:32:28;;;;;;;10.77;2.45;;;;;;;;;;5401708;26;25066;-60
2024/04/11 03:34:54;;;;;;;9.88;2.45;;;;;;;;;;5388881;26;25059;-62
2024/04/11 03:37:20;;;;;;;9.73;2.20;;;;;;;;;;5380755;26;25100;-62
2024/04/11 03:39:46;;;;;;;8.93;2.40;;;;;;;;;;5404215;26;25042;-61
2024/04/11 03:42:12;;;;;;;11.15;2.47;;;;;;;;;;5402815;26;25135;-62
2024/04/11 03:44:41;;;;;;;9.35;2.58;;;;;;;;;;5403075;26;25066;-63
2024/04/11 03:47:08;;;;;;;9.30;2.65;;;;;;;;;;5407171;26;25069;-64
2024/04/11 03:49:34;;;;;;;8.05;2.65;;;;;;;;;;5402691;26;25171;-63
2024/04/11 03:52:05;;;;;;;10.00;2.38;;;;;;;;;;5402080;26;25046;-60
2024/04/11 03:54:31;;;;;;;10.45;2.13;;;;;;;;;;5371160;26;25043;-63
2024/04/11 03:56:58;;;;;;;7.07;2.22;;;;;;;;;;5405313;26;25063;-62
2024/04/11 03:59:25;;;;;;;11.73;2.90;;;;;;;;;;5401623;26;25059;-64
2024/04/11 04:01:52;;;;;;;10.02;2.33;;;;;;;;;;5370970;26;25097;-61
2024/04/11 04:04:19;;;;;;;13.07;2.72;;;;;;;;;;5395437;26;25050;-62
2024/04/11 04:06:46;;;;;;;10.10;2.53;;;;;;;;;;5367609;26;25043;-61
2024/04/11 04:09:12;;;;;;;10.02;2.85;;;;;;;;;;5374366;26;25058;-63
2024/04/11 04:11:38;;;;;;;12.00;2.72;;;;;;;;;;5396809;26;25057;-62
2024/04/11 04:14:08;;;;;;;13.43;3.03;;;;;;;;;;5405456;26;25052;-61
2024/04/11 04:16:35;;;;;;;11.38;3.20;;;;;;;;;;5404898;26;25078;-61
2024/04/11 04:19:02;;;;;;;7.88;2.78;;;;;;;;;;5406690;26;25034;-61
2024/04/11 04:21:29;;;;;;;11.27;3.10;;;;;;;;;;5399242;26;25079;-62
2024/04/11 04:23:55;;;;;;;12.50;3.13;;;;;;;;;;5404060;26;25149;-62
2024/04/11 04:26:30;;;;;;;8.75;3.30;;;;;;;;;;5403101;26;25059;-60
2024/04/11 04:28:57;;;;;;;8.60;3.25;;;;;;;;;;5383083;26;25073;-62
2024/04/11 04:31:33;;;;;;;10.18;3.58;;;;;;;;;;5361730;26;25060;-60
2024/04/11 04:34:01;;;;;;;5.95;3.30;;;;;;;;;;5362487;26;25125;-63
2024/04/11 04:36:28;;;;;;;15.00;3.85;;;;;;;;;;5366532;26;25039;-61
2024/04/11 04:38:56;;;;;;;13.23;3.90;;;;;;;;;;5400763;26;25110;-61
2024/04/11 04:41:25;;;;;;;8.77;3.30;;;;;;;;;;5399101;26;25071;-62
2024/04/11 04:43:54;;;;;;;12.38;3.90;;;;;;;;;;5400982;26;25091;-62
2024/04/11 04:46:30;;;;;;;9.75;3.33;;;;;;;;;;5399710;26;25035;-62
2024/04/11 04:48:56;;;;;;;7.35;3.45;;;;;;;;;;5397623;26;25087;-62
2024/04/11 04:51:24;;;;;;;10.35;3.22;;;;;;;;;;5400781;26;25072;-62
2024/04/11 04:53:50;;;;;;;14.90;4.07;;;;;;;;;;5404685;26;25074;-61
2024/04/11 04:56:17;;;;;;;7.90;3.88;;;;;;;;;;5396005;26;25143;-62
2024/04/11 04:58:44;;;;;;;10.40;3.65;;;;;;;;;;5393609;26;25069;-62
2024/04/11 05:01:10;;;;;;;16.50;4.53;;;;;;;;;;5366341;26;25040;-62
2024/04/11 05:03:38;;;;;;;14.90;4.38;;;;;;;;;;5369856;26;25054;-60
2024/04/11 05:06:07;;;;;;;15.18;4.20;;;;;;;;;;5371863;26;25038;-61
2024/04/11 05:08:33;;;;;;;15.13;4.60;;;;;;;;;;5376470;26;25050;-63
2024/04/11 05:11:00;;;;;;;13.75;4.55;;;;;;;;;;5369834;26;25044;-61
2024/04/11 05:13:29;;;;;;;9.90;4.25;;;;;;;;;;5383375;26;25044;-62
2024/04/11 05:15:56;;;;;;;15.70;4.07;;;;;;;;;;5407316;26;25039;-61
2024/04/11 05:18:23;;;;;;;12.60;4.90;;;;;;;;;;5401333;26;25045;-62
2024/04/11 05:20:51;;;;;;;12.85;4.75;;;;;;;;;;5404067;26;25059;-62
2024/04/11 05:23:19;;;;;;;13.13;4.10;;;;;;;;;;5404213;26;25151;-62
2024/04/11 05:25:46;;;;;;;13.88;4.30;;;;;;;;;;5396235;26;25164;-61
2024/04/11 05:28:12;;;;;;;12.93;4.60;;;;;;;;;;5398555;26;25067;-61
2024/04/11 05:30:43;;;;;;;14.23;4.60;;;;;;;;;;5393222;26;25054;-62
2024/04/11 05:33:09;;;;;;;16.20;4.68;;;;;;;;;;5402836;26;25041;-66
2024/04/11 05:35:36;;;;;;;18.00;4.53;;;;;;;;;;5404064;26;25048;-62
2024/04/11 05:38:02;;;;;;;17.20;5.57;;;;;;;;;;5400725;26;25051;-63
2024/04/11 05:40:32;;;;;;;12.27;4.70;;;;;;;;;;5406671;26;25070;-63
2024/04/11 05:42:58;;;;;;;11.57;5.38;;;;;;;;;;5403584;26;25050;-62
2024/04/11 05:45:33;;;;;;;12.68;4.80;;;;;;;;;;5397893;26;25098;-63
2024/04/11 05:48:03;;;;;;;12.88;4.35;;;;;;;;;;5367964;26;25061;-62
2024/04/11 05:50:29;;;;;;;9.90;4.18;;;;;;;;;;5361595;26;25075;-61
2024/04/11 05:52:58;;;;;;;14.75;4.63;;;;;;;;;;5366407;26;25090;-63
2024/04/11 05:55:24;;;;;;;13.05;4.40;;;;;;;;;;5370894;26;25061;-61
2024/04/11 05:57:51;;;;;;;13.52;4.25;;;;;;;;;;5371298;26;25036;-64
2024/04/11 06:00:18;;;;;;;12.35;4.38;;;;;;;;;;5396474;26;25040;-62
2024/04/11 06:02:45;;;;;;;12.00;4.60;;;;;;;;;;5371437;26;25058;-62
2024/04/11 06:05:11;;;;;;;17.83;4.60;;;;;;;;;;5393645;26;25097;-61
2024/04/11 06:07:39;;;;;;;15.20;4.85;;;;;;;;;;5403746;26;25115;-61
2024/04/11 06:10:05;;;;;;;10.45;4.75;;;;;;;;;;5404597;26;25050;-63
2024/04/11 06:12:35;;;;;;;13.55;4.55;;;;;;;;;;5403268;26;25072;-60
2024/04/11 06:15:02;;;;;;;12.00;4.28;;;;;;;;;;5369924;26;25061;-62
2024/04/11 06:17:28;;;;;;;10.27;5.50;;;;;;;;;;5387219;26;25040;-63
2024/04/11 06:20:01;;;;;;;11.50;4.50;;;;;;;;;;5390606;26;25052;-61
2024/04/11 06:22:28;;;;;;;11.50;4.60;;;;;;;;;;5404758;26;25070;-62
2024/04/11 06:24:54;;;;;;;14.27;4.97;;;;;;;;;;5403578;26;25053;-64
2024/04/11 06:27:20;;;;;;;13.60;4.90;;;;;;;;;;5404484;26;25038;-65
2024/04/11 06:29:47;;;;;;;12.98;5.20;;;;;;;;;;5406039;26;25060;-63
2024/04/11 06:32:13;;;;;;;15.30;5.82;;;;;;;;;;5373487;26;25068;-61
2024/04/11 06:34:41;;;;;;;10.18;6.28;;;;;;;;;;5384035;26;25045;-61
2024/04/11 06:37:11;;;;;;;18.05;6.65;;;;;;;;;;5397054;26;25086;-60
2024/04/11 06:39:38;;;;;;;13.80;6.18;;;;;;;;;;5364328;26;25042;-61
2024/04/11 06:42:10;;;;;;;14.88;7.45;;;;;;;;;;5365976;26;25067;-62
2024/04/11 06:44:37;;;;;;;18.55;6.90;;;;;;;;;;5400202;26;25041;-61
2024/04/11 06:47:03;;;;;;;11.63;7.30;;;;;;;;;;5409588;26;25056;-60
2024/04/11 06:49:29;;;;;;;14.18;6.85;;;;;;;;;;5393563;26;25051;-61
2024/04/11 06:51:55;;;;;;;14.60;7.47;;;;;;;;;;5373993;26;25059;-62
2024/04/11 06:54:24;;;;;;;23.98;8.32;;;;;;;;;;5389647;26;25039;-62
2024/04/11 06:56:52;;;;;;;17.75;7.65;;;;;;;;;;5403505;26;25115;-63
2024/04/11 06:59:20;;;;;;;14.88;7.53;;;;;;;;;;5398640;26;25041;-61
2024/04/11 07:01:47;;;;;;;15.25;7.88;;;;;;;;;;5399274;26;25047;-62
2024/04/11 07:04:14;;;;;;;20.58;8.82;;;;;;;;;;5404401;26;25051;-61
2024/04/11 07:06:40;;;;;;;16.52;8.45;;;;;;;;;;5404131;26;25119;-62
2024/04/11 07:09:11;;;;;;;13.15;8.63;;;;;;;;;;5402959;26;25049;-62
2024/04/11 07:11:40;;;;;;;17.77;8.05;;;;;;;;;;5402766;26;25097;-62
2024/04/11 07:14:11;;;;;;;17.95;8.32;;;;;;;;;;5389660;26;25052;-61
2024/04/11 07:16:44;;;;;;;13.07;8.38;;;;;;;;;;5383547;26;25124;-64
2024/04/11 07:19:11;;;;;;;17.50;9.00;;;;;;;;;;5402833;26;25047;-61
2024/04/11 07:21:38;;;;;;;16.02;8.68;;;;;;;;;;5402474;26;25046;-62
2024/04/11 07:24:04;;;;;;;12.38;7.70;;;;;;;;;;5401417;26;25046;-61
2024/04/11 07:26:32;;;;;;;14.35;8.35;;;;;;;;;;5388737;26;25082;-63
2024/04/11 07:29:03;;;;;;;25.83;9.13;;;;;;;;;;5405654;26;25055;-61
2024/04/11 07:31:30;;;;;;;11.95;7.53;;;;;;;;;;5401033;26;25097;-62
2024/04/11 07:33:58;;;;;;;18.98;8.35;;;;;;;;;;5400111;26;25042;-62
2024/04/11 07:36:25;;;;;;;19.67;8.68;;;;;;;;;;5393155;26;25053;-63
2024/04/11 07:38:53;;;;;;;14.77;8.20;;;;;;;;;;5403810;26;25054;-62
2024/04/11 07:41:20;;;;;;;17.73;7.72;;;;;;;;;;5395053;26;25036;-61
2024/04/11 07:43:51;;;;;;;21.15;8.52;;;;;;;;;;5401354;26;25047;-61
2024/04/11 07:46:17;;;;;;;23.23;8.52;;;;;;;;;;5398140;26;25062;-60
2024/04/11 07:48:47;;;;;;;13.65;7.80;;;;;;;;;;5375924;26;25097;-61
2024/04/11 07:51:13;;;;;;;13.02;7.65;;;;;;;;;;5368473;26;26166;-62
2024/04/11 07:53:41;;;;;;;13.93;7.60;;;;;;;;;;5392309;26;25042;-63
2024/04/11 07:56:09;;;;;;;19.17;8.68;;;;;;;;;;5403143;26;25054;-61
2024/04/11 07:58:35;;;;;;;15.63;8.50;;;;;;;;;;5402849;26;25062;-62
2024/04/11 08:01:02;;;;;;;12.93;8.73;;;;;;;;;;5402795;26;25122;-63
2024/04/11 08:03:28;;;;;;;17.48;8.35;;;;;;;;;;5402168;26;25041;-60
2024/04/11 08:05:54;;;;;;;16.40;8.40;;;;;;;;;;5401770;26;25047;-60
2024/04/11 08:08:20;;;;;;;11.88;8.15;;;;;;;;;;5397585;26;25034;-62
2024/04/11 08:10:50;;;;;;;14.98;9.63;;;;;;;;;;5404520;26;25042;-62
2024/04/11 08:13:20;;;;;;;18.85;9.10;;;;;;;;;;5398066;26;25050;-59
2024/04/11 08:15:46;;;;;;;21.65;9.15;;;;;;;;;;5400355;26;25051;-63
2024/04/11 08:18:12;;;;;;;16.05;8.65;;;;;;;;;;5399289;26;25056;-61
2024/04/11 08:20:40;;;;;;;22.88;9.65;;;;;;;;;;5401716;26;25049;-64
2024/04/11 08:23:08;;;;;;;16.77;8.52;;;;;;;;;;5404345;26;25107;-60
2024/04/11 08:25:34;;;;;;;14.90;9.93;;;;;;;;;;5405933;26;25033;-60
2024/04/11 08:28:02;;;;;;;14.18;9.77;;;;;;;;;;5403397;26;25109;-61
2024/04/11 08:30:29;;;;;;;18.50;10.00;;;;;;;;;;5406539;26;25045;-63
2024/04/11 08:32:58;;;;;;;13.30;9.25;;;;;;;;;;5406516;26;25055;-62
2024/04/11 08:35:24;;;;;;;19.90;12.02;;;;;;;;;;5405411;26;25072;-62
2024/04/11 08:37:51;;;;;;;21.50;10.52;;;;;;;;;;5405857;26;25049;-61
2024/04/11 08:40:17;;;;;;;19.45;10.40;;;;;;;;;;5407539;26;25101;-63
2024/04/11 08:42:44;;;;;;;17.38;9.70;;;;;;;;;;5405886;26;25078;-61
2024/04/11 08:45:12;;;;;;;20.27;11.40;;;;;;;;;;5406216;26;25060;-62
2024/04/11 08:47:39;;;;;;;19.70;11.82;;;;;;;;;;5405986;26;25071;-61
2024/04/11 08:50:05;;;;;;;16.85;12.13;;;;;;;;;;5407549;26;25058;-61
2024/04/11 08:52:32;;;;;;;20.48;11.40;;;;;;;;;;5403449;26;25144;-62
2024/04/11 08:54:58;;;;;;;23.05;12.05;;;;;;;;;;5407340;26;30451;-62
2024/04/11 08:57:27;;;;;;;26.67;13.07;;;;;;;;;;5405761;26;25085;-63
2024/04/11 08:59:54;;;;;;;18.95;13.25;;;;;;;;;;5405447;26;25086;-62
2024/04/11 09:02:20;;;;;;;20.05;13.50;;;;;;;;;;5402452;26;25078;-61
2024/04/11 09:04:46;;;;;;;18.95;12.38;;;;;;;;;;5405531;26;25054;-61
2024/04/11 09:07:21;;;;;;;19.08;12.88;;;;;;;;;;5405726;26;25050;-61
2024/04/11 09:09:50;;;;;;;24.55;13.18;;;;;;;;;;5402871;26;25046;-62
2024/04/11 09:12:16;;;;;;;17.90;14.20;;;;;;;;;;5399118;26;25058;-62
2024/04/11 09:14:43;;;;;;;22.25;13.23;;;;;;;;;;5405778;26;25099;-61
2024/04/11 09:17:13;;;;;;;18.02;13.48;;;;;;;;;;5405762;26;25056;-60
2024/04/11 09:19:40;;;;;;;18.25;13.38;;;;;;;;;;5390222;26;25070;-61
2024/04/11 09:22:13;;;;;;;20.25;12.77;;;;;;;;;;5375086;26;25106;-63
2024/04/11 09:24:41;;;;;;;22.63;14.10;;;;;;;;;;5406712;26;25063;-61
2024/04/11 09:27:08;;;;;;;15.40;12.02;;;;;;;;;;5408221;26;25056;-62
2024/04/11 09:29:35;;;;;;;24.02;15.05;;;;;;;;;;5405004;26;25129;-62
2024/04/11 09:32:06;;;;;;;21.33;15.05;;;;;;;;;;5387223;26;25062;-63
2024/04/11 09:34:38;;;;;;;16.42;12.70;;;;;;;;;;5381821;26;25064;-61
2024/04/11 09:37:09;;;;;;;23.27;14.30;;;;;;;;;;5406907;26;25052;-64
2024/04/11 09:39:45;;;;;;;25.40;14.40;;;;;;;;;;5405604;26;25047;-62
2024/04/11 09:42:12;;;;;;;18.52;12.63;;;;;;;;;;5406121;26;25108;-63
2024/04/11 09:44:48;;;;;;;19.48;14.50;;;;;;;;;;5405402;26;25047;-62
2024/04/11 09:47:26;;;;;;;19.70;13.88;;;;;;;;;;5402229;26;25111;-63
2024/04/11 09:49:59;;;;;;;22.20;16.15;;;;;;;;;;5396202;26;25050;-62
2024/04/11 09:52:27;;;;;;;23.70;15.85;;;;;;;;;;5405723;26;25058;-63
2024/04/11 09:54:55;;;;;;;26.02;16.80;;;;;;;;;;5404377;26;25100;-63
2024/04/11 09:57:21;;;;;;;24.50;16.42;;;;;;;;;;5405496;26;25072;-63
2024/04/11 09:59:48;;;;;;;27.17;18.40;;;;;;;;;;5387553;26;25061;-64
2024/04/11 10:02:16;;;;;;;28.67;18.67;;;;;;;;;;5406837;26;25141;-62
2024/04/11 10:04:45;;;;;;;30.23;18.35;;;;;;;;;;5397710;26;25040;-62
2024/04/11 10:07:13;;;;;;;28.92;18.85;;;;;;;;;;5403571;26;25050;-61
2024/04/11 10:09:48;;;;;;;32.45;20.50;;;;;;;;;;5406702;26;25053;-62
2024/04/11 10:12:19;;;;;;;30.98;20.27;;;;;;;;;;5391010;26;25057;-62
2024/04/11 10:14:48;;;;;;;34.37;20.37;;;;;;;;;;5402084;26;25144;-62
2024/04/11 10:17:14;;;;;;;35.50;21.13;;;;;;;;;;5405528;26;25089;-63
2024/04/11 10:19:43;;;;;;;33.92;21.95;;;;;;;;;;5403797;26;25037;-63
2024/04/11 10:22:15;;;;;;;28.75;20.25;;;;;;;;;;5388565;26;25057;-64
2024/04/11 10:24:49;;;;;;;33.95;22.48;;;;;;;;;;5372537;26;25062;-64
2024/04/11 10:27:18;;;;;;;38.25;23.08;;;;;;;;;;5398261;26;25081;-63
2024/04/11 10:29:48;;;;;;;31.15;20.60;;;;;;;;;;5401223;26;25052;-62
2024/04/11 10:32:21;;;;;;;31.75;21.67;;;;;;;;;;5368803;26;25192;-63
2024/04/11 10:34:55;;;;;;;31.83;20.23;;;;;;;;;;5369494;26;25043;-63
2024/04/11 10:37:25;;;;;;;27.85;20.23;;;;;;;;;;5368942;26;25127;-62
2024/04/11 10:39:57;;;;;;;33.75;22.05;;;;;;;;;;5369798;26;25150;-67
2024/04/11 10:42:39;;;;;;;27.77;18.42;;;;;;;;;;5351101;26;25033;-62
2024/04/11 10:45:10;;;;;;;32.35;19.20;;;;;;;;;;5372224;26;25076;-63
2024/04/11 10:47:38;;;;;;;29.25;18.60;;;;;;;;;;5356952;26;25069;-65
2024/04/11 10:50:09;;;;;;;31.55;17.95;;;;;;;;;;5382124;26;25062;-64
2024/04/11 10:52:37;;;;;;;25.73;17.42;;;;;;;;;;5403108;26;25053;-62
2024/04/11 10:55:12;;;;;;;23.00;16.73;;;;;;;;;;5400015;26;25044;-64
2024/04/11 10:57:40;;;;;;;27.77;17.25;;;;;;;;;;5399626;26;25050;-64
2024/04/11 11:00:10;;;;;;;28.48;17.75;;;;;;;;;;5359717;26;25035;-63
2024/04/11 11:02:38;;;;;;;25.65;17.58;;;;;;;;;;5365499;26;25051;-65
2024/04/11 11:05:06;;;;;;;26.70;17.98;;;;;;;;;;5367969;26;25062;-63
2024/04/11 11:07:32;;;;;;;29.73;17.63;;;;;;;;;;5381839;26;25087;-65
2024/04/11 11:09:58;;;;;;;28.77;16.30;;;;;;;;;;5400477;26;25064;-64
2024/04/11 11:12:25;;;;;;;27.70;17.38;;;;;;;;;;5383582;26;25098;-63
2024/04/11 11:14:54;;;;;;;30.50;17.90;;;;;;;;;;5391941;26;25033;-63
2024/04/11 11:17:20;;;;;;;32.45;18.02;;;;;;;;;;5378201;26;25137;-63
2024/04/11 11:19:50;;;;;;;26.65;18.02;;;;;;;;;;5367884;21;25060;-64
2024/04/11 11:22:37;;;;;;;31.85;18.90;;;;;;;;;;5332749;26;25055;-63
2024/04/11 11:25:08;;;;;;;25.85;16.50;;;;;;;;;;5329528;26;25074;-64
2024/04/11 11:27:35;;;;;;;23.38;15.98;;;;;;;;;;5332827;26;25131;-64
2024/04/11 11:30:05;;;;;;;22.45;14.52;;;;;;;;;;5328625;26;25057;-61
2024/04/11 11:32:38;;;;;;;23.83;16.00;;;;;;;;;;5344188;26;25087;-64
2024/04/11 11:35:05;;;;;;;20.73;15.30;;;;;;;;;;5361674;26;25061;-63
2024/04/11 11:37:32;;;;;;;25.73;15.68;;;;;;;;;;5363421;26;25041;-62
2024/04/11 11:40:32;;;;;;;25.58;16.30;;;;;;;;;;5367019;26;25052;-62
2024/04/11 11:42:44;;;;;;;23.20;15.05;;;;;;;;;;5384921;26;25093;-63
2024/04/11 11:45:10;;;;;;;18.83;13.65;;;;;;;;;;5336970;26;25067;-64
2024/04/11 11:47:36;;;;;;;20.17;14.20;;;;;;;;;;5317815;26;25054;-63
2024/04/11 11:50:12;;;;;;;17.73;12.60;;;;;;;;;;5328000;26;25035;-63
2024/04/11 11:52:42;;;;;;;15.85;12.45;;;;;;;;;;5336801;26;25073;-62
2024/04/11 11:55:08;;;;;;;15.77;11.35;;;;;;;;;;5339180;26;25063;-64
2024/04/11 11:57:41;;;;;;;21.02;13.45;;;;;;;;;;5337619;26;25103;-63
2024/04/11 12:00:18;;;;;;;;;;;;;;;;;;5336548;26;25052;-63
2024/04/11 12:02:44;;;;;;;19.83;12.63;;;;;;;;;;5335019;26;24058;-63
2024/04/11 12:05:14;;;;;;;17.10;10.63;;;;;;;;;;5340306;26;25053;-63
2024/04/11 12:07:43;;;;;;;18.65;10.90;;;;;;;;;;5347693;26;25053;-61
2024/04/11 12:10:14;;;;;;;16.10;9.32;;;;;;;;;;5337485;26;25026;-64
2024/04/11 12:12:43;;;;;;;13.73;8.93;;;;;;;;;;5337897;26;25054;-61
2024/04/11 12:15:14;;;;;;;17.05;9.60;;;;;;;;;;5325457;26;25070;-63
2024/04/11 12:17:40;;;;;;;12.73;9.10;;;;;;;;;;5330055;26;25062;-63
2024/04/11 12:20:06;;;;;;;14.70;9.80;;;;;;;;;;5339577;26;25164;-64
2024/04/11 12:22:35;;;;;;;16.08;10.00;;;;;;;;;;5342698;26;25055;-64
2024/04/11 12:25:04;;;;;;;15.45;9.50;;;;;;;;;;5337612;26;25049;-63
2024/04/11 12:27:30;;;;;;;18.88;11.82;;;;;;;;;;5338219;26;25200;-62
2024/04/11 12:30:01;;;;;;;16.58;10.70;;;;;;;;;;5343773;26;25059;-63
2024/04/11 12:32:27;;;;;;;15.75;9.85;;;;;;;;;;5341833;26;25106;-64
2024/04/11 12:34:55;;;;;;;19.63;10.65;;;;;;;;;;5337232;26;25060;-62
2024/04/11 12:37:25;;;;;;;17.50;10.32;;;;;;;;;;5339800;26;25117;-63
2024/04/11 12:39:54;;;;;;;19.48;9.57;;;;;;;;;;5343044;26;25054;-63
2024/04/11 12:42:22;;;;;;;16.13;9.85;;;;;;;;;;5371743;26;25038;-63
2024/04/11 12:44:48;;;;;;;10.88;8.07;;;;;;;;;;5340361;26;25115;-64
2024/04/11 12:47:14;;;;;;;11.15;8.55;;;;;;;;;;5330402;26;25056;-61
2024/04/11 12:49:49;;;;;;;14.77;9.32;;;;;;;;;;5337627;26;25059;-64
2024/04/11 12:52:24;;;;;;;13.20;8.80;;;;;;;;;;5335858;26;26354;-64
2024/04/11 12:54:58;;;;;;;11.43;8.55;;;;;;;;;;5336815;26;25044;-63
2024/04/11 12:57:28;;;;;;;13.20;7.55;;;;;;;;;;5336634;26;25147;-63
2024/04/11 12:59:56;;;;;;;9.05;7.00;;;;;;;;;;5337195;26;25059;-64
2024/04/11 13:02:23;;;;;;;8.98;5.82;;;;;;;;;;5337002;26;25051;-61
2024/04/11 13:04:53;;;;;;;7.78;6.03;;;;;;;;;;5335695;26;25060;-64
2024/04/11 13:07:21;;;;;;;9.50;7.05;;;;;;;;;;5335315;26;25037;-63
2024/04/11 13:10:07;;;;;;;12.50;7.40;;;;;;;;;;5334237;26;25059;-64
2024/04/11 13:12:34;;;;;;;13.23;7.47;;;;;;;;;;5335121;26;25037;-63
2024/04/11 13:15:12;;;;;;;11.05;7.57;;;;;;;;;;5330729;26;25067;-63
2024/04/11 13:17:41;;;;;;;6.45;5.95;;;;;;;;;;5336883;26;25042;-63
2024/04/11 13:20:14;;;;;;;8.93;6.38;;;;;;;;;;5336322;26;25063;-63
2024/04/11 13:22:41;;;;;;;8.73;6.60;;;;;;;;;;5335458;26;25058;-63
2024/04/11 13:25:17;;;;;;;11.10;6.95;;;;;;;;;;5336810;26;25049;-62
2024/04/11 13:27:43;;;;;;;7.93;5.75;;;;;;;;;;5337335;26;25066;-64
2024/04/11 13:30:12;;;;;;;10.85;5.65;;;;;;;;;;5337721;26;25065;-63
2024/04/11 13:32:59;;;;;;;8.27;6.25;;;;;;;;;;5335578;26;25059;-62
2024/04/11 13:35:37;;;;;;;14.48;8.55;;;;;;;;;;5335395;26;25039;-64
2024/04/11 13:38:13;;;;;;;13.50;9.40;;;;;;;;;;5328050;26;25056;-64
2024/04/11 13:43:31;;;;;;;18.98;9.85;;;;;;;;;;5337169;26;25044;-63
2024/04/11 13:46:07;;;;;;;15.38;9.32;;;;;;;;;;5337117;26;25110;-63
2024/04/11 13:48:53;;;;;;;13.63;9.57;;;;;;;;;;5334855;26;25059;-63
2024/04/11 13:51:24;;;;;;;16.17;10.35;;;;;;;;;;5331197;26;25122;-64
2024/04/11 13:53:54;;;;;;;17.45;11.30;;;;;;;;;;5336137;26;25052;-63
2024/04/11 13:56:22;;;;;;;14.45;10.30;;;;;;;;;;5338318;26;25043;-66
2024/04/11 13:58:48;;;;;;;17.20;12.50;;;;;;;;;;5333669;26;25068;-64
2024/04/11 14:01:27;;;;;;;17.60;10.93;;;;;;;;;;5337412;26;25104;-65
2024/04/11 14:03:54;;;;;;;18.85;12.32;;;;;;;;;;5351344;26;25066;-63
2024/04/11 14:08:49;;;;;;;20.67;13.15;;;;;;;;;;5390559;26;25035;-61
2024/04/11 14:11:25;;;;;;;18.67;12.15;;;;;;;;;;5369730;26;25044;-63
2024/04/11 14:13:53;;;;;;;16.73;11.85;;;;;;;;;;5365739;26;25051;-66
2024/04/11 14:16:20;;;;;;;18.55;11.85;;;;;;;;;;5373559;26;25072;-63
2024/04/11 14:18:49;;;;;;;18.80;11.95;;;;;;;;;;5365812;26;25033;-64
2024/04/11 14:21:21;;;;;;;19.27;12.18;;;;;;;;;;5374424;26;25049;-64
2024/04/11 14:23:52;;;;;;;;;;;;;;;;;;5375686;26;25102;-63
2024/04/11 14:26:35;;;;;;;18.20;13.02;;;;;;;;;;5374238;26;24063;-63
2024/04/11 14:29:02;;;;;;;19.40;13.00;;;;;;;;;;5376112;26;25047;-64
2024/04/11 14:31:31;;;;;;;24.92;13.50;;;;;;;;;;5372532;26;25042;-63
2024/04/11 14:36:26;;;;;;;22.20;12.45;;;;;;;;;;5374928;26;25041;-62
2024/04/11 14:38:55;;;;;;;17.98;11.18;;;;;;;;;;5364838;26;25071;-65
2024/04/11 14:41:22;;;;;;;16.77;11.52;;;;;;;;;;5367025;26;25071;-65
2024/04/11 14:43:55;;;;;;;15.60;11.23;;;;;;;;;;5363477;26;25318;-62